sensor_id;sensor_type;location;lat;lon;timestamp;pressure;altitude;pressure_sealevel;temperature;humidity
58018;BME280;43810;50.860;19.226;2023-02-18T00:00:57;98111.41;;;9.15;77.67
58018;BME280;43810;50.860;19.226;2023-02-18T00:03:24;98094.94;;;9.09;77.33
58018;BME280;43810;50.860;19.226;2023-02-18T00:05:50;98087.22;;;9.04;77.00
58018;BME280;43810;50.860;19.226;2023-02-18T00:08:16;98082.09;;;8.99;76.43
58018;BME280;43810;50.860;19.226;2023-02-18T00:10:42;98091.25;;;8.89;76.69
58018;BME280;43810;50.860;19.226;2023-02-18T00:13:08;98091.03;;;8.82;75.93
58018;BME280;43810;50.860;19.226;2023-02-18T00:15:35;98111.19;;;8.75;75.24
58018;BME280;43810;50.860;19.226;2023-02-18T00:18:01;98117.47;;;8.70;72.59
58018;BME280;43810;50.860;19.226;2023-02-18T00:20:27;98117.34;;;8.67;72.14
58018;BME280;43810;50.860;19.226;2023-02-18T00:22:52;98124.28;;;8.59;72.04
58018;BME280;43810;50.860;19.226;2023-02-18T00:25:18;98116.41;;;8.50;69.91
58018;BME280;43810;50.860;19.226;2023-02-18T00:27:44;98124.56;;;8.45;69.59
58018;BME280;43810;50.860;19.226;2023-02-18T00:30:10;98131.47;;;8.38;69.60
58018;BME280;43810;50.860;19.226;2023-02-18T00:32:36;98142.44;;;8.27;69.16
58018;BME280;43810;50.860;19.226;2023-02-18T00:35:02;98150.72;;;8.26;67.07
58018;BME280;43810;50.860;19.226;2023-02-18T00:37:29;98139.53;;;8.20;66.04
58018;BME280;43810;50.860;19.226;2023-02-18T00:39:55;98157.03;;;8.13;66.65
58018;BME280;43810;50.860;19.226;2023-02-18T00:42:20;98148.97;;;8.09;66.77
58018;BME280;43810;50.860;19.226;2023-02-18T00:44:46;98136.13;;;7.99;66.64
58018;BME280;43810;50.860;19.226;2023-02-18T00:47:12;98154.69;;;7.90;66.96
58018;BME280;43810;50.860;19.226;2023-02-18T00:49:38;98141.78;;;7.89;66.00
58018;BME280;43810;50.860;19.226;2023-02-18T00:52:04;98141.78;;;7.89;65.93
58018;BME280;43810;50.860;19.226;2023-02-18T00:54:30;98146.47;;;7.83;66.01
58018;BME280;43810;50.860;19.226;2023-02-18T00:56:55;98155.53;;;7.74;65.45
58018;BME280;43810;50.860;19.226;2023-02-18T00:59:21;98154.97;;;7.68;66.13
58018;BME280;43810;50.860;19.226;2023-02-18T01:01:47;98171.16;;;7.67;65.37
58018;BME280;43810;50.860;19.226;2023-02-18T01:04:13;98172.56;;;7.64;65.10
58018;BME280;43810;50.860;19.226;2023-02-18T01:06:39;98177.06;;;7.64;63.95
58018;BME280;43810;50.860;19.226;2023-02-18T01:09:05;98169.13;;;7.64;61.72
58018;BME280;43810;50.860;19.226;2023-02-18T01:11:31;98174.72;;;7.62;61.30
58018;BME280;43810;50.860;19.226;2023-02-18T01:13:57;98177.41;;;7.53;61.09
58018;BME280;43810;50.860;19.226;2023-02-18T01:16:22;98171.56;;;7.39;60.00
58018;BME280;43810;50.860;19.226;2023-02-18T01:18:49;98173.88;;;7.41;59.34
58018;BME280;43810;50.860;19.226;2023-02-18T01:21:15;98182.13;;;7.39;59.63
58018;BME280;43810;50.860;19.226;2023-02-18T01:23:41;98184.19;;;7.34;58.70
58018;BME280;43810;50.860;19.226;2023-02-18T01:26:08;98196.16;;;7.31;56.96
58018;BME280;43810;50.860;19.226;2023-02-18T01:28:34;98188.69;;;7.33;57.92
58018;BME280;43810;50.860;19.226;2023-02-18T01:31:05;98209.06;;;7.33;56.84
58018;BME280;43810;50.860;19.226;2023-02-18T01:33:32;98189.78;;;7.32;55.83
58018;BME280;43810;50.860;19.226;2023-02-18T01:35:57;98204.09;;;7.31;57.47
58018;BME280;43810;50.860;19.226;2023-02-18T01:38:23;98203.47;;;7.26;57.09
58018;BME280;43810;50.860;19.226;2023-02-18T01:40:50;98206.28;;;7.12;58.48
58018;BME280;43810;50.860;19.226;2023-02-18T01:43:18;98210.81;;;7.03;58.91
58018;BME280;43810;50.860;19.226;2023-02-18T01:46:04;98199.97;;;6.96;59.61
58018;BME280;43810;50.860;19.226;2023-02-18T01:48:52;98205.53;;;6.86;60.63
58018;BME280;43810;50.860;19.226;2023-02-18T01:51:23;98202.88;;;6.77;61.64
58018;BME280;43810;50.860;19.226;2023-02-18T01:54:02;98217.94;;;6.68;63.05
58018;BME280;43810;50.860;19.226;2023-02-18T01:57:09;98210.34;;;6.58;63.42
58018;BME280;43810;50.860;19.226;2023-02-18T01:59:40;98211.13;;;6.58;64.01
58018;BME280;43810;50.860;19.226;2023-02-18T02:02:10;98206.91;;;6.66;64.67
58018;BME280;43810;50.860;19.226;2023-02-18T02:04:38;98205.41;;;6.65;64.46
58018;BME280;43810;50.860;19.226;2023-02-18T02:07:04;98212.69;;;6.68;65.00
58018;BME280;43810;50.860;19.226;2023-02-18T02:09:31;98215.47;;;6.63;65.73
58018;BME280;43810;50.860;19.226;2023-02-18T02:42:33;98233.03;;;6.41;64.90
58018;BME280;43810;50.860;19.226;2023-02-18T02:45:10;98232.69;;;6.34;64.94
58018;BME280;43810;50.860;19.226;2023-02-18T02:50:46;98241.53;;;6.38;63.98
58018;BME280;43810;50.860;19.226;2023-02-18T02:53:22;98256.00;;;6.50;62.62
58018;BME280;43810;50.860;19.226;2023-02-18T02:55:49;98254.44;;;6.49;63.10
58018;BME280;43810;50.860;19.226;2023-02-18T02:58:17;98259.84;;;6.43;63.47
58018;BME280;43810;50.860;19.226;2023-02-18T03:11:10;98266.00;;;6.22;61.64
58018;BME280;43810;50.860;19.226;2023-02-18T03:19:23;98278.72;;;6.20;62.01
58018;BME280;43810;50.860;19.226;2023-02-18T03:21:59;98271.09;;;6.09;62.40
58018;BME280;43810;50.860;19.226;2023-02-18T03:24:29;98276.03;;;6.02;62.76
58018;BME280;43810;50.860;19.226;2023-02-18T03:27:03;98279.13;;;5.96;63.31
58018;BME280;43810;50.860;19.226;2023-02-18T03:29:30;98277.09;;;5.93;64.12
58018;BME280;43810;50.860;19.226;2023-02-18T03:32:00;98279.75;;;5.93;63.63
58018;BME280;43810;50.860;19.226;2023-02-18T03:34:36;98280.81;;;5.92;64.09
58018;BME280;43810;50.860;19.226;2023-02-18T03:37:03;98292.44;;;5.91;64.73
58018;BME280;43810;50.860;19.226;2023-02-18T03:39:31;98292.44;;;5.91;64.19
58018;BME280;43810;50.860;19.226;2023-02-18T03:41:58;98297.41;;;5.92;63.43
58018;BME280;43810;50.860;19.226;2023-02-18T03:44:25;98298.78;;;5.90;63.98
58018;BME280;43810;50.860;19.226;2023-02-18T03:46:51;98302.81;;;5.87;63.92
58018;BME280;43810;50.860;19.226;2023-02-18T03:49:17;98313.50;;;5.82;64.68
58018;BME280;43810;50.860;19.226;2023-02-18T03:51:42;98313.31;;;5.79;65.16
58018;BME280;43810;50.860;19.226;2023-02-18T03:54:09;98317.50;;;5.80;64.77
58018;BME280;43810;50.860;19.226;2023-02-18T03:56:36;98311.66;;;5.83;65.10
58018;BME280;43810;50.860;19.226;2023-02-18T03:59:02;98309.31;;;5.81;64.77
58018;BME280;43810;50.860;19.226;2023-02-18T04:01:29;98315.34;;;5.82;65.20
58018;BME280;43810;50.860;19.226;2023-02-18T04:03:55;98332.72;;;5.83;65.12
58018;BME280;43810;50.860;19.226;2023-02-18T04:06:22;98325.13;;;5.81;65.20
58018;BME280;43810;50.860;19.226;2023-02-18T04:08:48;98330.22;;;5.78;64.63
58018;BME280;43810;50.860;19.226;2023-02-18T04:11:14;98333.16;;;5.76;64.76
58018;BME280;43810;50.860;19.226;2023-02-18T04:13:40;98323.34;;;5.68;64.60
58018;BME280;43810;50.860;19.226;2023-02-18T04:16:06;98334.19;;;5.66;63.98
58018;BME280;43810;50.860;19.226;2023-02-18T04:18:32;98332.81;;;5.69;63.53
58018;BME280;43810;50.860;19.226;2023-02-18T04:20:57;98333.94;;;5.77;61.81
58018;BME280;43810;50.860;19.226;2023-02-18T04:23:23;98327.88;;;5.76;62.00
58018;BME280;43810;50.860;19.226;2023-02-18T04:25:49;98329.25;;;5.73;62.15
58018;BME280;43810;50.860;19.226;2023-02-18T04:28:15;98327.53;;;5.69;61.84
58018;BME280;43810;50.860;19.226;2023-02-18T04:30:43;98328.47;;;5.73;61.34
58018;BME280;43810;50.860;19.226;2023-02-18T04:33:09;98345.06;;;5.73;61.19
58018;BME280;43810;50.860;19.226;2023-02-18T04:35:35;98339.78;;;5.73;61.11
58018;BME280;43810;50.860;19.226;2023-02-18T04:38:02;98334.38;;;5.70;60.88
58018;BME280;43810;50.860;19.226;2023-02-18T04:40:27;98341.78;;;5.68;61.80
58018;BME280;43810;50.860;19.226;2023-02-18T04:42:59;98322.69;;;5.62;62.14
58018;BME280;43810;50.860;19.226;2023-02-18T04:45:26;98341.13;;;5.62;62.66
58018;BME280;43810;50.860;19.226;2023-02-18T04:47:53;98340.69;;;5.60;63.02
58018;BME280;43810;50.860;19.226;2023-02-18T04:50:19;98333.19;;;5.54;63.54
58018;BME280;43810;50.860;19.226;2023-02-18T04:52:45;98333.59;;;5.47;63.48
58018;BME280;43810;50.860;19.226;2023-02-18T04:55:11;98335.28;;;5.43;62.87
58018;BME280;43810;50.860;19.226;2023-02-18T04:57:37;98341.44;;;5.38;63.78
58018;BME280;43810;50.860;19.226;2023-02-18T05:00:05;98334.94;;;5.36;63.62
58018;BME280;43810;50.860;19.226;2023-02-18T05:02:32;98336.50;;;5.37;63.90
58018;BME280;43810;50.860;19.226;2023-02-18T05:04:58;98335.72;;;5.36;64.45
58018;BME280;43810;50.860;19.226;2023-02-18T05:07:24;98349.97;;;5.35;65.50
58018;BME280;43810;50.860;19.226;2023-02-18T05:09:49;98347.63;;;5.34;65.02
58018;BME280;43810;50.860;19.226;2023-02-18T05:12:15;98359.03;;;5.29;65.72
58018;BME280;43810;50.860;19.226;2023-02-18T05:14:41;98358.56;;;5.27;65.68
58018;BME280;43810;50.860;19.226;2023-02-18T05:17:07;98357.91;;;5.22;65.80
58018;BME280;43810;50.860;19.226;2023-02-18T05:19:33;98382.09;;;5.24;64.76
58018;BME280;43810;50.860;19.226;2023-02-18T05:21:59;98366.59;;;5.22;64.01
58018;BME280;43810;50.860;19.226;2023-02-18T05:24:25;98385.81;;;5.23;63.71
58018;BME280;43810;50.860;19.226;2023-02-18T05:26:51;98377.69;;;5.19;63.86
58018;BME280;43810;50.860;19.226;2023-02-18T05:29:16;98381.25;;;5.15;64.47
58018;BME280;43810;50.860;19.226;2023-02-18T05:31:42;98381.06;;;5.11;64.42
58018;BME280;43810;50.860;19.226;2023-02-18T05:34:08;98386.59;;;5.10;64.14
58018;BME280;43810;50.860;19.226;2023-02-18T05:36:34;98381.16;;;5.06;63.57
58018;BME280;43810;50.860;19.226;2023-02-18T05:39:00;98395.00;;;5.12;64.18
58018;BME280;43810;50.860;19.226;2023-02-18T05:41:26;98383.88;;;5.15;63.70
58018;BME280;43810;50.860;19.226;2023-02-18T05:43:52;98387.28;;;5.15;63.55
58018;BME280;43810;50.860;19.226;2023-02-18T05:46:36;98383.09;;;5.14;64.11
58018;BME280;43810;50.860;19.226;2023-02-18T05:49:02;98388.81;;;5.16;63.07
58018;BME280;43810;50.860;19.226;2023-02-18T05:51:28;98393.31;;;5.16;63.53
58018;BME280;43810;50.860;19.226;2023-02-18T05:53:54;98396.56;;;5.13;62.74
58018;BME280;43810;50.860;19.226;2023-02-18T05:56:20;98397.63;;;5.12;62.44
58018;BME280;43810;50.860;19.226;2023-02-18T05:58:46;98397.94;;;5.10;62.14
58018;BME280;43810;50.860;19.226;2023-02-18T06:01:12;98398.03;;;5.05;63.05
58018;BME280;43810;50.860;19.226;2023-02-18T06:03:37;98399.41;;;5.03;62.21
58018;BME280;43810;50.860;19.226;2023-02-18T06:06:04;98409.94;;;5.03;61.67
58018;BME280;43810;50.860;19.226;2023-02-18T06:08:29;98409.34;;;5.06;61.86
58018;BME280;43810;50.860;19.226;2023-02-18T06:10:55;98414.50;;;5.11;62.18
58018;BME280;43810;50.860;19.226;2023-02-18T06:13:21;98415.78;;;5.13;62.07
58018;BME280;43810;50.860;19.226;2023-02-18T06:15:49;98412.72;;;5.20;61.05
58018;BME280;43810;50.860;19.226;2023-02-18T06:18:16;98423.16;;;5.25;61.12
58018;BME280;43810;50.860;19.226;2023-02-18T06:20:42;98417.75;;;5.30;60.47
58018;BME280;43810;50.860;19.226;2023-02-18T06:23:08;98418.06;;;5.28;60.95
58018;BME280;43810;50.860;19.226;2023-02-18T06:25:34;98415.13;;;5.30;60.80
58018;BME280;43810;50.860;19.226;2023-02-18T06:28:00;98415.19;;;5.38;59.34
58018;BME280;43810;50.860;19.226;2023-02-18T06:30:26;98401.91;;;5.44;60.27
58018;BME280;43810;50.860;19.226;2023-02-18T06:32:52;98397.78;;;5.51;59.66
58018;BME280;43810;50.860;19.226;2023-02-18T06:35:17;98396.47;;;5.62;59.04
58018;BME280;43810;50.860;19.226;2023-02-18T06:37:43;98408.31;;;5.73;60.05
58018;BME280;43810;50.860;19.226;2023-02-18T06:40:10;98411.69;;;5.88;58.64
58018;BME280;43810;50.860;19.226;2023-02-18T06:42:36;98416.53;;;5.94;59.05
58018;BME280;43810;50.860;19.226;2023-02-18T06:45:02;98409.72;;;5.93;58.40
58018;BME280;43810;50.860;19.226;2023-02-18T06:47:28;98405.34;;;5.89;59.69
58018;BME280;43810;50.860;19.226;2023-02-18T06:49:54;98400.66;;;5.86;58.67
58018;BME280;43810;50.860;19.226;2023-02-18T06:52:19;98409.03;;;5.88;59.97
58018;BME280;43810;50.860;19.226;2023-02-18T06:54:45;98415.28;;;5.92;59.33
58018;BME280;43810;50.860;19.226;2023-02-18T06:57:11;98407.06;;;5.93;58.68
58018;BME280;43810;50.860;19.226;2023-02-18T06:59:37;98421.63;;;5.91;58.92
58018;BME280;43810;50.860;19.226;2023-02-18T07:02:02;98413.91;;;5.94;58.61
58018;BME280;43810;50.860;19.226;2023-02-18T07:04:28;98417.78;;;5.97;58.44
58018;BME280;43810;50.860;19.226;2023-02-18T07:06:54;98415.63;;;5.99;59.23
58018;BME280;43810;50.860;19.226;2023-02-18T07:09:20;98405.84;;;5.99;58.78
58018;BME280;43810;50.860;19.226;2023-02-18T07:11:46;98412.06;;;5.95;58.93
58018;BME280;43810;50.860;19.226;2023-02-18T07:14:12;98415.78;;;5.94;58.70
58018;BME280;43810;50.860;19.226;2023-02-18T07:16:37;98417.63;;;5.93;59.08
58018;BME280;43810;50.860;19.226;2023-02-18T07:19:03;98419.97;;;5.95;59.74
58018;BME280;43810;50.860;19.226;2023-02-18T07:21:29;98411.56;;;5.93;59.55
58018;BME280;43810;50.860;19.226;2023-02-18T07:23:55;98425.69;;;5.97;59.52
58018;BME280;43810;50.860;19.226;2023-02-18T07:26:21;98424.81;;;6.01;60.32
58018;BME280;43810;50.860;19.226;2023-02-18T07:28:47;98416.00;;;6.06;58.47
58018;BME280;43810;50.860;19.226;2023-02-18T07:31:12;98412.63;;;6.14;59.19
58018;BME280;43810;50.860;19.226;2023-02-18T07:33:38;98417.13;;;6.14;59.89
58018;BME280;43810;50.860;19.226;2023-02-18T07:36:04;98411.06;;;6.13;58.89
58018;BME280;43810;50.860;19.226;2023-02-18T07:38:30;98412.31;;;6.16;58.47
58018;BME280;43810;50.860;19.226;2023-02-18T07:40:57;98418.88;;;6.27;58.79
58018;BME280;43810;50.860;19.226;2023-02-18T07:43:23;98427.00;;;6.30;60.04
58018;BME280;43810;50.860;19.226;2023-02-18T07:45:49;98428.41;;;6.36;59.13
58018;BME280;43810;50.860;19.226;2023-02-18T07:48:15;98429.06;;;6.42;59.53
58018;BME280;43810;50.860;19.226;2023-02-18T07:50:43;98422.25;;;6.50;59.06
58018;BME280;43810;50.860;19.226;2023-02-18T07:53:10;98412.28;;;6.46;57.90
58018;BME280;43810;50.860;19.226;2023-02-18T07:55:37;98412.78;;;6.49;58.16
58018;BME280;43810;50.860;19.226;2023-02-18T07:58:17;98413.41;;;6.54;57.41
58018;BME280;43810;50.860;19.226;2023-02-18T08:00:44;98402.09;;;6.54;58.70
58018;BME280;43810;50.860;19.226;2023-02-18T08:03:19;98412.69;;;6.62;57.97
58018;BME280;43810;50.860;19.226;2023-02-18T08:05:46;98411.72;;;6.58;56.72
58018;BME280;43810;50.860;19.226;2023-02-18T08:08:20;98411.91;;;6.62;57.95
58018;BME280;43810;50.860;19.226;2023-02-18T08:10:46;98407.53;;;6.66;57.07
58018;BME280;43810;50.860;19.226;2023-02-18T08:13:12;98422.16;;;6.72;56.09
58018;BME280;43810;50.860;19.226;2023-02-18T08:15:39;98411.78;;;6.75;57.45
58018;BME280;43810;50.860;19.226;2023-02-18T08:18:07;98427.66;;;6.84;55.54
58018;BME280;43810;50.860;19.226;2023-02-18T08:20:37;98416.00;;;6.85;55.76
58018;BME280;43810;50.860;19.226;2023-02-18T08:23:04;98413.97;;;6.82;56.07
58018;BME280;43810;50.860;19.226;2023-02-18T08:25:29;98412.28;;;6.86;56.88
58018;BME280;43810;50.860;19.226;2023-02-18T08:27:56;98406.56;;;6.93;56.92
58018;BME280;43810;50.860;19.226;2023-02-18T08:30:21;98409.06;;;6.98;56.25
58018;BME280;43810;50.860;19.226;2023-02-18T08:32:47;98415.56;;;7.00;55.37
58018;BME280;43810;50.860;19.226;2023-02-18T08:35:13;98409.06;;;6.98;56.22
58018;BME280;43810;50.860;19.226;2023-02-18T08:37:39;98404.72;;;7.02;55.24
58018;BME280;43810;50.860;19.226;2023-02-18T08:40:05;98412.66;;;7.10;56.10
58018;BME280;43810;50.860;19.226;2023-02-18T08:42:31;98416.69;;;7.16;55.31
58018;BME280;43810;50.860;19.226;2023-02-18T08:44:57;98414.69;;;7.22;54.69
58018;BME280;43810;50.860;19.226;2023-02-18T08:47:23;98413.75;;;7.27;55.13
58018;BME280;43810;50.860;19.226;2023-02-18T08:49:49;98418.56;;;7.25;54.92
58018;BME280;43810;50.860;19.226;2023-02-18T08:52:15;98416.72;;;7.34;55.15
58018;BME280;43810;50.860;19.226;2023-02-18T08:54:40;98415.47;;;7.40;54.38
58018;BME280;43810;50.860;19.226;2023-02-18T08:57:06;98408.31;;;7.40;53.84
58018;BME280;43810;50.860;19.226;2023-02-18T08:59:32;98417.19;;;7.44;53.96
58018;BME280;43810;50.860;19.226;2023-02-18T09:01:58;98419.97;;;7.48;54.41
58018;BME280;43810;50.860;19.226;2023-02-18T09:04:23;98410.97;;;7.49;54.02
58018;BME280;43810;50.860;19.226;2023-02-18T09:06:50;98415.78;;;7.47;53.61
58018;BME280;43810;50.860;19.226;2023-02-18T09:09:16;98406.31;;;7.54;53.25
58018;BME280;43810;50.860;19.226;2023-02-18T09:11:43;98409.56;;;7.60;52.15
58018;BME280;43810;50.860;19.226;2023-02-18T09:14:09;98401.31;;;7.62;52.44
58018;BME280;43810;50.860;19.226;2023-02-18T09:16:35;98390.16;;;7.56;51.95
58018;BME280;43810;50.860;19.226;2023-02-18T09:19:03;98398.41;;;7.46;52.58
58018;BME280;43810;50.860;19.226;2023-02-18T09:21:29;98391.09;;;7.34;51.89
58018;BME280;43810;50.860;19.226;2023-02-18T09:23:55;98405.53;;;7.37;52.25
58018;BME280;43810;50.860;19.226;2023-02-18T09:26:21;98388.88;;;7.36;51.32
58018;BME280;43810;50.860;19.226;2023-02-18T09:28:48;98399.63;;;7.40;50.99
58018;BME280;43810;50.860;19.226;2023-02-18T09:31:16;98396.38;;;7.43;51.45
58018;BME280;43810;50.860;19.226;2023-02-18T09:33:47;98399.91;;;7.47;50.09
58018;BME280;43810;50.860;19.226;2023-02-18T09:36:13;98402.25;;;7.48;51.59
58018;BME280;43810;50.860;19.226;2023-02-18T09:38:39;98398.06;;;7.47;50.67
58018;BME280;43810;50.860;19.226;2023-02-18T09:41:09;98393.72;;;7.43;51.04
58018;BME280;43810;50.860;19.226;2023-02-18T09:43:42;98394.50;;;7.43;51.18
58018;BME280;43810;50.860;19.226;2023-02-18T09:46:27;98393.56;;;7.57;51.36
58018;BME280;43810;50.860;19.226;2023-02-18T09:48:54;98400.25;;;7.54;51.16
58018;BME280;43810;50.860;19.226;2023-02-18T09:51:20;98387.66;;;7.51;50.25
58018;BME280;43810;50.860;19.226;2023-02-18T09:53:46;98395.88;;;7.49;51.26
58018;BME280;43810;50.860;19.226;2023-02-18T09:56:20;98398.06;;;7.56;50.16
58018;BME280;43810;50.860;19.226;2023-02-18T09:58:48;98391.69;;;7.57;49.89
58018;BME280;43810;50.860;19.226;2023-02-18T10:03:57;98392.75;;;7.73;50.74
58018;BME280;43810;50.860;19.226;2023-02-18T10:06:29;98389.31;;;7.81;50.95
58018;BME280;43810;50.860;19.226;2023-02-18T10:08:57;98385.25;;;7.93;50.80
58018;BME280;43810;50.860;19.226;2023-02-18T10:13:54;98367.97;;;8.04;49.50
58018;BME280;43810;50.860;19.226;2023-02-18T10:16:23;98386.19;;;7.97;49.72
58018;BME280;43810;50.860;19.226;2023-02-18T10:18:53;98366.53;;;8.06;49.95
58018;BME280;43810;50.860;19.226;2023-02-18T10:21:29;98363.41;;;8.13;50.03
58018;BME280;43810;50.860;19.226;2023-02-18T10:26:30;98370.19;;;8.31;48.82
58018;BME280;43810;50.860;19.226;2023-02-18T10:28:58;98346.09;;;8.24;49.45
58018;BME280;43810;50.860;19.226;2023-02-18T10:31:31;98353.00;;;8.46;50.04
58018;BME280;43810;50.860;19.226;2023-02-18T10:34:05;98343.84;;;8.64;49.71
58018;BME280;43810;50.860;19.226;2023-02-18T10:37:07;98351.19;;;8.88;48.97
58018;BME280;43810;50.860;19.226;2023-02-18T10:52:51;98345.59;;;9.10;48.40
58018;BME280;43810;50.860;19.226;2023-02-18T10:55:33;98336.59;;;9.03;50.46
58018;BME280;43810;50.860;19.226;2023-02-18T10:58:00;98345.72;;;8.93;49.75
58018;BME280;43810;50.860;19.226;2023-02-18T11:00:26;98333.97;;;8.73;50.91
58018;BME280;43810;50.860;19.226;2023-02-18T11:05:39;98337.25;;;8.49;50.57
58018;BME280;43810;50.860;19.226;2023-02-18T11:08:09;98323.09;;;8.45;51.06
58018;BME280;43810;50.860;19.226;2023-02-18T11:10:39;98322.78;;;8.47;52.15
58018;BME280;43810;50.860;19.226;2023-02-18T11:13:08;98328.56;;;8.70;52.90
58018;BME280;43810;50.860;19.226;2023-02-18T11:15:35;98332.50;;;8.63;51.48
58018;BME280;43810;50.860;19.226;2023-02-18T11:18:41;98331.50;;;8.47;53.16
58018;BME280;43810;50.860;19.226;2023-02-18T11:23:56;98328.31;;;8.33;55.56
58018;BME280;43810;50.860;19.226;2023-02-18T11:26:33;98322.22;;;8.33;56.32
58018;BME280;43810;50.860;19.226;2023-02-18T11:29:08;98327.28;;;8.17;57.83
58018;BME280;43810;50.860;19.226;2023-02-18T11:31:46;98329.22;;;7.99;59.25
58018;BME280;43810;50.860;19.226;2023-02-18T11:34:22;98334.72;;;7.85;61.42
58018;BME280;43810;50.860;19.226;2023-02-18T11:36:51;98334.16;;;7.54;64.38
58018;BME280;43810;50.860;19.226;2023-02-18T11:39:20;98340.38;;;7.24;65.63
58018;BME280;43810;50.860;19.226;2023-02-18T11:49:23;98335.34;;;6.53;71.01
58018;BME280;43810;50.860;19.226;2023-02-18T11:51:50;98329.53;;;6.42;72.18
58018;BME280;43810;50.860;19.226;2023-02-18T11:54:30;98312.00;;;6.38;73.08
58018;BME280;43810;50.860;19.226;2023-02-18T11:56:59;98307.63;;;6.33;73.16
58018;BME280;43810;50.860;19.226;2023-02-18T11:59:28;98305.63;;;6.30;73.58
58018;BME280;43810;50.860;19.226;2023-02-18T12:05:09;98297.25;;;6.28;73.92
58018;BME280;43810;50.860;19.226;2023-02-18T12:10:58;98285.31;;;6.39;73.62
58018;BME280;43810;50.860;19.226;2023-02-18T12:13:26;98261.25;;;6.41;73.93
58018;BME280;43810;50.860;19.226;2023-02-18T12:18:52;98274.41;;;6.24;74.54
58018;BME280;43810;50.860;19.226;2023-02-18T12:21:32;98266.78;;;6.22;75.05
58018;BME280;43810;50.860;19.226;2023-02-18T12:34:56;98259.53;;;5.80;78.34
58018;BME280;43810;50.860;19.226;2023-02-18T12:40:38;98247.63;;;5.91;79.08
58018;BME280;43810;50.860;19.226;2023-02-18T12:43:08;98240.69;;;6.03;79.44
58018;BME280;43810;50.860;19.226;2023-02-18T12:48:48;98227.34;;;6.08;79.40
58018;BME280;43810;50.860;19.226;2023-02-18T12:54:45;98225.44;;;5.83;79.88
58018;BME280;43810;50.860;19.226;2023-02-18T13:13:33;98180.81;;;6.21;81.99
58018;BME280;43810;50.860;19.226;2023-02-18T13:16:04;98184.41;;;6.34;82.41
58018;BME280;43810;50.860;19.226;2023-02-18T13:18:32;98178.03;;;6.43;81.32
58018;BME280;43810;50.860;19.226;2023-02-18T13:21:04;98173.72;;;6.30;81.07
58018;BME280;43810;50.860;19.226;2023-02-18T13:23:37;98163.59;;;6.15;81.52
58018;BME280;43810;50.860;19.226;2023-02-18T13:26:05;98161.56;;;6.03;82.29
58018;BME280;43810;50.860;19.226;2023-02-18T13:28:48;98162.47;;;5.90;82.28
58018;BME280;43810;50.860;19.226;2023-02-18T13:33:59;98149.00;;;5.92;83.40
58018;BME280;43810;50.860;19.226;2023-02-18T13:36:35;98126.53;;;6.03;83.50
58018;BME280;43810;50.860;19.226;2023-02-18T13:39:16;98128.53;;;6.15;82.63
58018;BME280;43810;50.860;19.226;2023-02-18T13:41:46;98124.81;;;6.16;82.61
58018;BME280;43810;50.860;19.226;2023-02-18T13:46:53;98100.78;;;6.26;82.64
58018;BME280;43810;50.860;19.226;2023-02-18T13:49:30;98094.25;;;6.23;82.89
58018;BME280;43810;50.860;19.226;2023-02-18T13:51:59;98082.44;;;6.21;83.11
58018;BME280;43810;50.860;19.226;2023-02-18T13:54:33;98065.25;;;6.15;83.35
58018;BME280;43810;50.860;19.226;2023-02-18T13:57:24;98060.25;;;6.22;82.81
58018;BME280;43810;50.860;19.226;2023-02-18T14:00:55;98048.31;;;6.24;82.76
58018;BME280;43810;50.860;19.226;2023-02-18T14:03:19;98038.38;;;6.21;83.34
58018;BME280;43810;50.860;19.226;2023-02-18T14:05:45;98037.31;;;6.22;83.44
58018;BME280;43810;50.860;19.226;2023-02-18T14:08:33;98018.50;;;6.32;83.50
58018;BME280;43810;50.860;19.226;2023-02-18T14:13:40;98009.22;;;6.26;82.84
58018;BME280;43810;50.860;19.226;2023-02-18T14:16:08;98001.13;;;6.31;82.73
58018;BME280;43810;50.860;19.226;2023-02-18T14:18:59;98003.34;;;6.12;83.03
58018;BME280;43810;50.860;19.226;2023-02-18T14:21:41;97992.31;;;6.10;83.80
58018;BME280;43810;50.860;19.226;2023-02-18T14:24:09;97977.44;;;5.97;84.36
58018;BME280;43810;50.860;19.226;2023-02-18T14:26:42;97986.94;;;6.06;83.84
58018;BME280;43810;50.860;19.226;2023-02-18T14:29:25;97972.50;;;6.04;84.20
58018;BME280;43810;50.860;19.226;2023-02-18T14:31:55;97977.78;;;5.95;84.69
58018;BME280;43810;50.860;19.226;2023-02-18T14:34:46;97969.25;;;6.07;84.99
58018;BME280;43810;50.860;19.226;2023-02-18T14:47:39;97926.44;;;5.93;86.17
58018;BME280;43810;50.860;19.226;2023-02-18T14:50:12;97921.78;;;5.90;86.41
58018;BME280;43810;50.860;19.226;2023-02-18T14:52:56;97893.91;;;5.80;85.84
58018;BME280;43810;50.860;19.226;2023-02-18T14:55:30;97919.44;;;5.97;86.04
58018;BME280;43810;50.860;19.226;2023-02-18T14:58:04;97897.00;;;5.91;85.77
58018;BME280;43810;50.860;19.226;2023-02-18T15:00:39;97884.59;;;5.83;86.38
58018;BME280;43810;50.860;19.226;2023-02-18T15:03:14;97877.16;;;5.76;86.60
58018;BME280;43810;50.860;19.226;2023-02-18T15:05:43;97857.94;;;5.76;87.40
58018;BME280;43810;50.860;19.226;2023-02-18T15:10:43;97851.41;;;5.73;87.27
58018;BME280;43810;50.860;19.226;2023-02-18T15:13:29;97832.06;;;5.69;87.37
58018;BME280;43810;50.860;19.226;2023-02-18T15:16:04;97826.63;;;5.74;87.68
58018;BME280;43810;50.860;19.226;2023-02-18T15:18:50;97828.50;;;5.65;87.93
58018;BME280;43810;50.860;19.226;2023-02-18T15:21:20;97818.91;;;5.69;87.88
58018;BME280;43810;50.860;19.226;2023-02-18T15:23:49;97822.91;;;5.75;87.98
58018;BME280;43810;50.860;19.226;2023-02-18T15:26:16;97815.63;;;5.72;87.71
58018;BME280;43810;50.860;19.226;2023-02-18T15:28:53;97788.66;;;5.66;87.96
58018;BME280;43810;50.860;19.226;2023-02-18T15:31:25;97809.72;;;5.75;87.88
58018;BME280;43810;50.860;19.226;2023-02-18T15:33:51;97798.41;;;5.74;87.76
58018;BME280;43810;50.860;19.226;2023-02-18T15:36:17;97796.22;;;5.77;87.38
58018;BME280;43810;50.860;19.226;2023-02-18T15:38:43;97794.41;;;5.68;87.98
58018;BME280;43810;50.860;19.226;2023-02-18T15:41:13;97775.34;;;5.71;88.16